sensor_id;sensor_type;location;lat;lon;timestamp;pressure;altitude;pressure_sealevel;temperature;humidity
17785;BME280;9016;53.582;10.062;2022-11-14T00:01:13;102174.06;;;10.07;86.73
17785;BME280;9016;53.582;10.062;2022-11-14T00:03:41;102163.66;;;10.01;87.13
17785;BME280;9016;53.582;10.062;2022-11-14T00:06:10;102162.97;;;10.21;87.09
17785;BME280;9016;53.582;10.062;2022-11-14T00:08:38;102164.63;;;10.25;86.11
17785;BME280;9016;53.582;10.062;2022-11-14T00:11:07;102162.44;;;10.36;85.92
17785;BME280;9016;53.582;10.062;2022-11-14T00:13:36;102159.44;;;10.20;85.39
17785;BME280;9016;53.582;10.062;2022-11-14T00:16:04;102160.44;;;10.18;85.92
17785;BME280;9016;53.582;10.062;2022-11-14T00:18:31;102154.66;;;10.05;85.43
17785;BME280;9016;53.582;10.062;2022-11-14T00:21:00;102152.00;;;10.03;85.51
17785;BME280;9016;53.582;10.062;2022-11-14T00:23:28;102150.06;;;10.10;85.53
17785;BME280;9016;53.582;10.062;2022-11-14T00:25:55;102141.13;;;10.11;85.31
17785;BME280;9016;53.582;10.062;2022-11-14T00:28:25;102141.13;;;10.11;85.02
17785;BME280;9016;53.582;10.062;2022-11-14T00:30:53;102136.75;;;10.10;85.25
17785;BME280;9016;53.582;10.062;2022-11-14T00:33:21;102141.66;;;10.21;85.30
17785;BME280;9016;53.582;10.062;2022-11-14T00:35:51;102148.50;;;10.03;85.19
17785;BME280;9016;53.582;10.062;2022-11-14T00:38:19;102137.38;;;9.90;85.60
17785;BME280;9016;53.582;10.062;2022-11-14T00:40:47;102133.34;;;9.80;86.13
17785;BME280;9016;53.582;10.062;2022-11-14T00:43:15;102136.13;;;9.76;86.76
17785;BME280;9016;53.582;10.062;2022-11-14T00:45:45;102123.97;;;9.69;86.72
17785;BME280;9016;53.582;10.062;2022-11-14T00:48:14;102121.63;;;9.60;87.24
17785;BME280;9016;53.582;10.062;2022-11-14T00:50:42;102117.25;;;9.59;87.06
17785;BME280;9016;53.582;10.062;2022-11-14T00:53:10;102120.97;;;9.53;87.39
17785;BME280;9016;53.582;10.062;2022-11-14T00:55:38;102114.59;;;9.57;86.89
17785;BME280;9016;53.582;10.062;2022-11-14T00:58:06;102107.56;;;9.56;87.39
17785;BME280;9016;53.582;10.062;2022-11-14T01:00:35;102105.28;;;9.46;87.49
17785;BME280;9016;53.582;10.062;2022-11-14T01:03:04;102102.94;;;9.35;88.41
17785;BME280;9016;53.582;10.062;2022-11-14T01:05:32;102102.00;;;9.38;88.06
17785;BME280;9016;53.582;10.062;2022-11-14T01:08:00;102093.19;;;9.36;87.90
17785;BME280;9016;53.582;10.062;2022-11-14T01:10:28;102090.31;;;9.42;88.42
17785;BME280;9016;53.582;10.062;2022-11-14T01:12:56;102081.66;;;9.61;88.03
17785;BME280;9016;53.582;10.062;2022-11-14T01:15:24;102093.06;;;9.65;87.85
17785;BME280;9016;53.582;10.062;2022-11-14T01:17:51;102080.31;;;9.74;87.11
17785;BME280;9016;53.582;10.062;2022-11-14T01:20:21;102089.38;;;9.69;86.48
17785;BME280;9016;53.582;10.062;2022-11-14T01:22:49;102080.34;;;9.73;87.32
17785;BME280;9016;53.582;10.062;2022-11-14T01:25:17;102075.09;;;9.71;87.25
17785;BME280;9016;53.582;10.062;2022-11-14T01:27:45;102088.13;;;9.79;86.67
17785;BME280;9016;53.582;10.062;2022-11-14T01:30:13;102083.97;;;9.70;86.48
17785;BME280;9016;53.582;10.062;2022-11-14T01:32:41;102083.03;;;9.73;85.90
17785;BME280;9016;53.582;10.062;2022-11-14T01:35:09;102071.81;;;9.63;86.27
17785;BME280;9016;53.582;10.062;2022-11-14T01:37:38;102067.38;;;9.64;86.68
17785;BME280;9016;53.582;10.062;2022-11-14T01:40:07;102067.16;;;9.70;86.78
17785;BME280;9016;53.582;10.062;2022-11-14T01:42:35;102063.97;;;9.60;86.84
17785;BME280;9016;53.582;10.062;2022-11-14T01:48:11;102055.28;;;9.55;87.14
17785;BME280;9016;53.582;10.062;2022-11-14T01:50:44;102052.97;;;9.45;87.40
17785;BME280;9016;53.582;10.062;2022-11-14T01:53:15;102050.38;;;9.43;87.34
17785;BME280;9016;53.582;10.062;2022-11-14T01:55:43;102042.06;;;9.28;88.84
17785;BME280;9016;53.582;10.062;2022-11-14T01:58:12;102056.13;;;9.31;88.84
17785;BME280;9016;53.582;10.062;2022-11-14T02:00:41;102047.25;;;9.31;88.71
17785;BME280;9016;53.582;10.062;2022-11-14T02:03:11;102038.03;;;9.41;88.85
17785;BME280;9016;53.582;10.062;2022-11-14T02:05:41;102029.03;;;9.45;88.38
17785;BME280;9016;53.582;10.062;2022-11-14T02:08:13;102029.41;;;9.34;88.85
17785;BME280;9016;53.582;10.062;2022-11-14T02:10:42;102022.63;;;9.26;88.86
17785;BME280;9016;53.582;10.062;2022-11-14T02:13:10;102021.81;;;9.24;89.05
17785;BME280;9016;53.582;10.062;2022-11-14T02:15:38;102014.53;;;9.29;89.06
17785;BME280;9016;53.582;10.062;2022-11-14T02:18:07;102014.53;;;9.29;88.64
17785;BME280;9016;53.582;10.062;2022-11-14T02:20:37;102007.97;;;9.39;89.93
17785;BME280;9016;53.582;10.062;2022-11-14T02:23:09;101999.31;;;9.32;88.57
17785;BME280;9016;53.582;10.062;2022-11-14T02:25:37;102009.59;;;9.43;88.89
17785;BME280;9016;53.582;10.062;2022-11-14T02:28:06;101995.16;;;9.50;88.35
17785;BME280;9016;53.582;10.062;2022-11-14T02:30:36;101988.09;;;9.49;87.87
17785;BME280;9016;53.582;10.062;2022-11-14T02:33:04;101987.13;;;9.51;88.18
17785;BME280;9016;53.582;10.062;2022-11-14T02:35:38;101980.38;;;9.41;87.78
17785;BME280;9016;53.582;10.062;2022-11-14T02:38:06;101988.97;;;9.49;88.53
17785;BME280;9016;53.582;10.062;2022-11-14T02:40:34;101979.78;;;9.58;87.55
17785;BME280;9016;53.582;10.062;2022-11-14T02:43:02;101981.63;;;9.56;87.34
17785;BME280;9016;53.582;10.062;2022-11-14T02:45:30;101972.56;;;9.37;88.01
17785;BME280;9016;53.582;10.062;2022-11-14T02:47:58;101970.19;;;9.29;87.96
17785;BME280;9016;53.582;10.062;2022-11-14T02:50:26;101961.28;;;9.30;88.53
17785;BME280;9016;53.582;10.062;2022-11-14T02:52:55;101967.94;;;9.42;88.22
17785;BME280;9016;53.582;10.062;2022-11-14T02:55:23;101965.78;;;9.53;87.70
17785;BME280;9016;53.582;10.062;2022-11-14T02:57:51;101963.94;;;9.55;87.32
17785;BME280;9016;53.582;10.062;2022-11-14T03:00:19;101964.69;;;9.58;87.08
17785;BME280;9016;53.582;10.062;2022-11-14T03:02:47;101954.44;;;9.71;87.23
17785;BME280;9016;53.582;10.062;2022-11-14T03:05:15;101955.38;;;9.70;86.27
17785;BME280;9016;53.582;10.062;2022-11-14T03:07:43;101946.69;;;9.65;87.21
17785;BME280;9016;53.582;10.062;2022-11-14T03:10:12;101936.78;;;9.68;86.47
17785;BME280;9016;53.582;10.062;2022-11-14T03:12:40;101939.97;;;9.55;87.24
17785;BME280;9016;53.582;10.062;2022-11-14T03:15:09;101937.75;;;9.43;87.07
17785;BME280;9016;53.582;10.062;2022-11-14T03:17:37;101931.19;;;9.53;87.84
17785;BME280;9016;53.582;10.062;2022-11-14T03:20:07;101921.16;;;9.59;87.40
17785;BME280;9016;53.582;10.062;2022-11-14T03:22:35;101922.69;;;9.66;87.21
17785;BME280;9016;53.582;10.062;2022-11-14T03:25:03;101918.88;;;9.73;86.09
17785;BME280;9016;53.582;10.062;2022-11-14T03:27:33;101921.13;;;9.84;86.76
17785;BME280;9016;53.582;10.062;2022-11-14T03:30:01;101914.34;;;9.75;85.77
17785;BME280;9016;53.582;10.062;2022-11-14T03:32:29;101911.19;;;9.66;86.64
17785;BME280;9016;53.582;10.062;2022-11-14T03:34:57;101910.66;;;9.56;86.70
17785;BME280;9016;53.582;10.062;2022-11-14T03:37:25;101907.50;;;9.68;87.11
17785;BME280;9016;53.582;10.062;2022-11-14T03:39:53;101909.91;;;9.53;87.67
17785;BME280;9016;53.582;10.062;2022-11-14T03:42:21;101911.97;;;9.45;87.34
17785;BME280;9016;53.582;10.062;2022-11-14T03:44:50;101904.78;;;9.24;87.91
17785;BME280;9016;53.582;10.062;2022-11-14T03:47:18;101897.34;;;9.33;88.46
17785;BME280;9016;53.582;10.062;2022-11-14T03:49:46;101901.03;;;9.29;87.90
17785;BME280;9016;53.582;10.062;2022-11-14T03:52:14;101892.78;;;9.37;88.18
17785;BME280;9016;53.582;10.062;2022-11-14T03:54:42;101891.03;;;9.36;88.06
17785;BME280;9016;53.582;10.062;2022-11-14T03:57:10;101886.44;;;9.39;87.67
17785;BME280;9016;53.582;10.062;2022-11-14T03:59:37;101889.84;;;9.44;88.71
17785;BME280;9016;53.582;10.062;2022-11-14T04:02:07;101886.91;;;9.50;87.87
17785;BME280;9016;53.582;10.062;2022-11-14T04:04:35;101887.19;;;9.44;87.10
17785;BME280;9016;53.582;10.062;2022-11-14T04:07:03;101882.50;;;9.26;87.64
17785;BME280;9016;53.582;10.062;2022-11-14T04:09:31;101886.91;;;9.27;87.93
17785;BME280;9016;53.582;10.062;2022-11-14T04:11:59;101882.00;;;9.40;87.25
17785;BME280;9016;53.582;10.062;2022-11-14T04:14:27;101885.28;;;9.46;87.17
17785;BME280;9016;53.582;10.062;2022-11-14T04:16:55;101884.53;;;9.43;87.62
17785;BME280;9016;53.582;10.062;2022-11-14T04:19:24;101886.38;;;9.41;87.03
17785;BME280;9016;53.582;10.062;2022-11-14T04:21:52;101877.56;;;9.40;87.32
17785;BME280;9016;53.582;10.062;2022-11-14T04:24:20;101880.78;;;9.25;87.57
17785;BME280;9016;53.582;10.062;2022-11-14T04:26:48;101881.19;;;9.15;88.29
17785;BME280;9016;53.582;10.062;2022-11-14T04:29:16;101863.47;;;9.14;88.20
17785;BME280;9016;53.582;10.062;2022-11-14T04:31:44;101870.22;;;9.24;88.23
17785;BME280;9016;53.582;10.062;2022-11-14T04:34:11;101856.66;;;9.30;88.33
17785;BME280;9016;53.582;10.062;2022-11-14T04:36:41;101860.75;;;9.15;87.88
17785;BME280;9016;53.582;10.062;2022-11-14T04:39:09;101846.38;;;9.21;87.97
17785;BME280;9016;53.582;10.062;2022-11-14T04:41:36;101851.34;;;9.30;87.35
17785;BME280;9016;53.582;10.062;2022-11-14T04:44:05;101845.25;;;9.28;86.44
17785;BME280;9016;53.582;10.062;2022-11-14T04:46:32;101846.16;;;9.27;87.65
17785;BME280;9016;53.582;10.062;2022-11-14T04:49:01;101846.22;;;9.25;88.20
17785;BME280;9016;53.582;10.062;2022-11-14T04:51:29;101842.81;;;9.22;87.67
17785;BME280;9016;53.582;10.062;2022-11-14T04:53:58;101840.31;;;9.17;87.79
17785;BME280;9016;53.582;10.062;2022-11-14T04:56:26;101843.78;;;9.19;87.74
17785;BME280;9016;53.582;10.062;2022-11-14T04:58:54;101842.88;;;9.20;87.95
17785;BME280;9016;53.582;10.062;2022-11-14T05:01:22;101837.75;;;9.14;88.14
17785;BME280;9016;53.582;10.062;2022-11-14T05:03:50;101838.56;;;9.16;87.91
17785;BME280;9016;53.582;10.062;2022-11-14T05:06:18;101837.63;;;9.17;87.66
17785;BME280;9016;53.582;10.062;2022-11-14T05:08:46;101841.50;;;9.09;88.30
17785;BME280;9016;53.582;10.062;2022-11-14T05:11:17;101847.31;;;9.20;88.30
17785;BME280;9016;53.582;10.062;2022-11-14T05:13:52;101827.53;;;9.27;87.66
17785;BME280;9016;53.582;10.062;2022-11-14T05:16:20;101833.81;;;9.24;87.23
17785;BME280;9016;53.582;10.062;2022-11-14T05:18:48;101829.84;;;9.36;87.04
17785;BME280;9016;53.582;10.062;2022-11-14T05:21:15;101830.41;;;9.21;87.26
17785;BME280;9016;53.582;10.062;2022-11-14T05:23:43;101826.25;;;9.14;88.25
17785;BME280;9016;53.582;10.062;2022-11-14T05:26:14;101813.41;;;9.25;88.46
17785;BME280;9016;53.582;10.062;2022-11-14T05:28:44;101810.97;;;9.20;87.59
17785;BME280;9016;53.582;10.062;2022-11-14T05:31:13;101815.91;;;9.29;87.90
17785;BME280;9016;53.582;10.062;2022-11-14T05:33:43;101802.97;;;9.20;87.58
17785;BME280;9016;53.582;10.062;2022-11-14T05:36:14;101810.81;;;9.23;87.77
17785;BME280;9016;53.582;10.062;2022-11-14T05:38:42;101795.03;;;9.19;87.48
17785;BME280;9016;53.582;10.062;2022-11-14T05:41:12;101804.22;;;9.10;87.36
17785;BME280;9016;53.582;10.062;2022-11-14T05:43:41;101810.97;;;9.20;87.79
17785;BME280;9016;53.582;10.062;2022-11-14T05:46:13;101812.91;;;9.38;86.97
17785;BME280;9016;53.582;10.062;2022-11-14T05:48:42;101811.56;;;9.27;87.13
17785;BME280;9016;53.582;10.062;2022-11-14T05:51:11;101806.03;;;9.33;87.78
17785;BME280;9016;53.582;10.062;2022-11-14T05:53:39;101818.44;;;9.32;87.08
17785;BME280;9016;53.582;10.062;2022-11-14T05:56:10;101810.97;;;9.20;87.20
17785;BME280;9016;53.582;10.062;2022-11-14T05:58:38;101805.44;;;9.02;87.55
17785;BME280;9016;53.582;10.062;2022-11-14T06:01:09;101811.72;;;8.99;88.74
17785;BME280;9016;53.582;10.062;2022-11-14T06:03:40;101820.03;;;8.90;88.31
17785;BME280;9016;53.582;10.062;2022-11-14T06:06:10;101818.59;;;8.81;89.44
17785;BME280;9016;53.582;10.062;2022-11-14T06:08:39;101818.34;;;8.87;89.89
17785;BME280;9016;53.582;10.062;2022-11-14T06:11:09;101809.41;;;8.90;89.72
17785;BME280;9016;53.582;10.062;2022-11-14T06:13:37;101817.22;;;8.94;89.67
17785;BME280;9016;53.582;10.062;2022-11-14T06:16:07;101816.19;;;8.98;89.50
17785;BME280;9016;53.582;10.062;2022-11-14T06:18:37;101821.75;;;8.92;89.04
17785;BME280;9016;53.582;10.062;2022-11-14T06:21:09;101822.06;;;8.83;89.08
17785;BME280;9016;53.582;10.062;2022-11-14T06:23:38;101823.25;;;8.75;89.81
17785;BME280;9016;53.582;10.062;2022-11-14T06:26:11;101817.72;;;8.81;89.75
17785;BME280;9016;53.582;10.062;2022-11-14T06:28:39;101811.72;;;8.76;89.00
17785;BME280;9016;53.582;10.062;2022-11-14T06:31:07;101827.53;;;8.79;89.10
17785;BME280;9016;53.582;10.062;2022-11-14T06:33:35;101818.00;;;8.73;89.61
17785;BME280;9016;53.582;10.062;2022-11-14T06:36:07;101825.97;;;8.73;89.51
17785;BME280;9016;53.582;10.062;2022-11-14T06:38:36;101818.97;;;8.71;89.99
17785;BME280;9016;53.582;10.062;2022-11-14T06:41:06;101809.41;;;8.65;90.09
17785;BME280;9016;53.582;10.062;2022-11-14T06:43:35;101801.94;;;8.76;89.94
17785;BME280;9016;53.582;10.062;2022-11-14T06:46:04;101804.97;;;8.66;89.52
17785;BME280;9016;53.582;10.062;2022-11-14T06:48:32;101806.22;;;8.80;89.95
17785;BME280;9016;53.582;10.062;2022-11-14T06:51:02;101820.25;;;8.84;88.75
17785;BME280;9016;53.582;10.062;2022-11-14T06:53:34;101815.88;;;8.83;88.27
17785;BME280;9016;53.582;10.062;2022-11-14T06:56:04;101813.03;;;8.87;88.66
17785;BME280;9016;53.582;10.062;2022-11-14T06:58:35;101813.44;;;8.77;88.47
17785;BME280;9016;53.582;10.062;2022-11-14T07:01:05;101821.47;;;8.75;89.58
17785;BME280;9016;53.582;10.062;2022-11-14T07:03:33;101813.50;;;8.75;89.41
17785;BME280;9016;53.582;10.062;2022-11-14T07:06:02;101804.38;;;8.82;89.81
17785;BME280;9016;53.582;10.062;2022-11-14T07:08:32;101816.75;;;8.83;88.82
17785;BME280;9016;53.582;10.062;2022-11-14T07:11:01;101813.31;;;8.80;89.50
17785;BME280;9016;53.582;10.062;2022-11-14T07:13:29;101817.88;;;8.76;89.34
17785;BME280;9016;53.582;10.062;2022-11-14T07:15:58;101808.06;;;8.78;89.88
17785;BME280;9016;53.582;10.062;2022-11-14T07:18:28;101818.38;;;8.63;89.99
17785;BME280;9016;53.582;10.062;2022-11-14T07:20:57;101814.72;;;8.65;89.74
17785;BME280;9016;53.582;10.062;2022-11-14T07:23:26;101807.56;;;8.67;89.91
17785;BME280;9016;53.582;10.062;2022-11-14T07:25:59;101811.25;;;8.63;90.60
17785;BME280;9016;53.582;10.062;2022-11-14T07:28:27;101818.25;;;8.66;89.84
17785;BME280;9016;53.582;10.062;2022-11-14T07:30:56;101816.91;;;8.79;89.46
17785;BME280;9016;53.582;10.062;2022-11-14T07:33:24;101823.72;;;8.86;88.67
17785;BME280;9016;53.582;10.062;2022-11-14T07:35:51;101830.81;;;8.87;88.65
17785;BME280;9016;53.582;10.062;2022-11-14T07:38:19;101828.50;;;8.76;88.63
17785;BME280;9016;53.582;10.062;2022-11-14T07:40:53;101837.22;;;8.80;89.11
17785;BME280;9016;53.582;10.062;2022-11-14T07:43:27;101825.97;;;8.73;88.67
17785;BME280;9016;53.582;10.062;2022-11-14T07:45:58;101829.44;;;8.75;89.82
17785;BME280;9016;53.582;10.062;2022-11-14T07:48:26;101827.09;;;8.66;89.87
17785;BME280;9016;53.582;10.062;2022-11-14T07:50:57;101819.78;;;8.73;90.10
17785;BME280;9016;53.582;10.062;2022-11-14T07:53:26;101814.38;;;8.76;90.38
17785;BME280;9016;53.582;10.062;2022-11-14T07:55:54;101813.38;;;8.78;90.24
17785;BME280;9016;53.582;10.062;2022-11-14T07:58:22;101806.47;;;8.97;88.65
17785;BME280;9016;53.582;10.062;2022-11-14T08:00:52;101807.84;;;9.08;87.61
17785;BME280;9016;53.582;10.062;2022-11-14T08:03:20;101804.28;;;9.09;87.46
17785;BME280;9016;53.582;10.062;2022-11-14T08:05:47;101804.63;;;9.23;86.59
17785;BME280;9016;53.582;10.062;2022-11-14T08:08:15;101800.47;;;9.16;86.25
17785;BME280;9016;53.582;10.062;2022-11-14T08:10:43;101795.44;;;9.08;87.47
17785;BME280;9016;53.582;10.062;2022-11-14T08:13:11;101799.88;;;9.08;86.69
17785;BME280;9016;53.582;10.062;2022-11-14T08:16:04;101792.22;;;9.00;87.24
17785;BME280;9016;53.582;10.062;2022-11-14T08:18:39;101795.09;;;8.94;87.31
17785;BME280;9016;53.582;10.062;2022-11-14T08:21:08;101792.31;;;8.97;86.75
17785;BME280;9016;53.582;10.062;2022-11-14T08:23:36;101793.41;;;8.91;87.68
17785;BME280;9016;53.582;10.062;2022-11-14T08:26:04;101783.00;;;8.85;88.41
17785;BME280;9016;53.582;10.062;2022-11-14T08:28:32;101789.13;;;8.87;88.07
17785;BME280;9016;53.582;10.062;2022-11-14T08:31:00;101790.72;;;8.68;88.21
17785;BME280;9016;53.582;10.062;2022-11-14T08:33:30;101789.72;;;8.71;88.32
17785;BME280;9016;53.582;10.062;2022-11-14T08:36:00;101787.53;;;8.83;87.87
17785;BME280;9016;53.582;10.062;2022-11-14T08:38:29;101793.72;;;8.59;88.05
17785;BME280;9016;53.582;10.062;2022-11-14T08:40:58;101797.00;;;8.66;88.77
17785;BME280;9016;53.582;10.062;2022-11-14T08:43:26;101797.00;;;8.66;88.47
17785;BME280;9016;53.582;10.062;2022-11-14T08:45:56;101796.63;;;8.76;88.91
17785;BME280;9016;53.582;10.062;2022-11-14T08:48:27;101792.53;;;8.91;88.66
17785;BME280;9016;53.582;10.062;2022-11-14T08:51:01;101787.81;;;8.99;86.65
17785;BME280;9016;53.582;10.062;2022-11-14T08:53:30;101792.31;;;8.97;86.61
17785;BME280;9016;53.582;10.062;2022-11-14T08:55:58;101779.38;;;8.88;87.65
17785;BME280;9016;53.582;10.062;2022-11-14T08:58:27;101794.69;;;8.81;87.63
17785;BME280;9016;53.582;10.062;2022-11-14T09:01:00;101795.53;;;8.82;88.13
17785;BME280;9016;53.582;10.062;2022-11-14T09:03:34;101782.78;;;8.91;87.36
17785;BME280;9016;53.582;10.062;2022-11-14T09:06:04;101782.56;;;8.97;87.17
17785;BME280;9016;53.582;10.062;2022-11-14T09:08:33;101778.97;;;8.98;87.28
17785;BME280;9016;53.582;10.062;2022-11-14T09:11:01;101782.03;;;8.88;86.91
17785;BME280;9016;53.582;10.062;2022-11-14T09:13:35;101771.66;;;8.80;87.00
17785;BME280;9016;53.582;10.062;2022-11-14T09:16:04;101771.59;;;8.82;87.48
17785;BME280;9016;53.582;10.062;2022-11-14T09:18:32;101774.16;;;8.85;87.81
17785;BME280;9016;53.582;10.062;2022-11-14T09:21:01;101775.44;;;8.98;87.74
17785;BME280;9016;53.582;10.062;2022-11-14T09:23:30;101775.63;;;8.93;87.83
17785;BME280;9016;53.582;10.062;2022-11-14T09:26:03;101762.25;;;8.95;87.16
17785;BME280;9016;53.582;10.062;2022-11-14T09:28:31;101769.53;;;8.90;88.02
17785;BME280;9016;53.582;10.062;2022-11-14T09:31:00;101779.22;;;8.92;88.72
17785;BME280;9016;53.582;10.062;2022-11-14T09:33:28;101777.31;;;8.96;87.87
17785;BME280;9016;53.582;10.062;2022-11-14T09:35:57;101776.38;;;8.97;87.62
17785;BME280;9016;53.582;10.062;2022-11-14T09:38:25;101768.78;;;9.10;87.54
17785;BME280;9016;53.582;10.062;2022-11-14T09:41:04;101764.06;;;9.18;87.25
17785;BME280;9016;53.582;10.062;2022-11-14T09:43:46;101761.75;;;9.09;87.01
17785;BME280;9016;53.582;10.062;2022-11-14T09:46:26;101752.03;;;8.84;87.95
17785;BME280;9016;53.582;10.062;2022-11-14T09:48:58;101747.94;;;8.99;87.96
17785;BME280;9016;53.582;10.062;2022-11-14T09:51:30;101741.38;;;9.08;86.95
17785;BME280;9016;53.582;10.062;2022-11-14T09:54:05;101733.56;;;9.26;86.47
17785;BME280;9016;53.582;10.062;2022-11-14T09:56:39;101736.97;;;9.30;85.10
17785;BME280;9016;53.582;10.062;2022-11-14T09:59:08;101745.38;;;9.42;85.00
17785;BME280;9016;53.582;10.062;2022-11-14T10:01:43;101743.63;;;9.63;84.47
17785;BME280;9016;53.582;10.062;2022-11-14T10:04:23;101749.59;;;9.48;83.94
17785;BME280;9016;53.582;10.062;2022-11-14T10:06:59;101748.72;;;9.47;84.22
17785;BME280;9016;53.582;10.062;2022-11-14T10:09:43;101751.13;;;9.53;84.42
17785;BME280;9016;53.582;10.062;2022-11-14T10:12:20;101747.81;;;9.47;84.19
17785;BME280;9016;53.582;10.062;2022-11-14T10:15:07;101743.31;;;9.49;84.47
17785;BME280;9016;53.582;10.062;2022-11-14T10:18:10;101739.25;;;9.62;83.88
17785;BME280;9016;53.582;10.062;2022-11-14T10:20:45;101743.13;;;9.75;84.33
17785;BME280;9016;53.582;10.062;2022-11-14T10:23:24;101731.50;;;9.56;83.23
17785;BME280;9016;53.582;10.062;2022-11-14T10:26:06;101728.66;;;9.60;83.00
17785;BME280;9016;53.582;10.062;2022-11-14T10:28:47;101725.41;;;9.74;82.41
17785;BME280;9016;53.582;10.062;2022-11-14T10:31:27;101717.56;;;9.71;82.90
17785;BME280;9016;53.582;10.062;2022-11-14T10:34:01;101710.81;;;9.84;82.25
17785;BME280;9016;53.582;10.062;2022-11-14T10:36:44;101698.91;;;9.92;81.47
17785;BME280;9016;53.582;10.062;2022-11-14T10:39:17;101697.66;;;9.81;82.05
17785;BME280;9016;53.582;10.062;2022-11-14T10:41:50;101694.25;;;9.77;82.12
17785;BME280;9016;53.582;10.062;2022-11-14T10:44:33;101696.13;;;9.95;81.81
17785;BME280;9016;53.582;10.062;2022-11-14T10:47:07;101690.03;;;10.14;81.05
17785;BME280;9016;53.582;10.062;2022-11-14T10:49:38;101689.91;;;10.17;80.45
17785;BME280;9016;53.582;10.062;2022-11-14T10:52:12;101689.38;;;10.29;79.85
17785;BME280;9016;53.582;10.062;2022-11-14T10:54:44;101675.53;;;10.21;79.67
17785;BME280;9016;53.582;10.062;2022-11-14T10:57:14;101675.03;;;10.31;79.29
17785;BME280;9016;53.582;10.062;2022-11-14T10:59:44;101675.81;;;10.35;79.42
17785;BME280;9016;53.582;10.062;2022-11-14T11:02:13;101663.66;;;10.28;79.24
17785;BME280;9016;53.582;10.062;2022-11-14T11:04:43;101651.84;;;10.53;78.64
17785;BME280;9016;53.582;10.062;2022-11-14T11:07:21;101652.56;;;10.75;77.18
17785;BME280;9016;53.582;10.062;2022-11-14T11:10:18;101648.91;;;10.59;77.31
17785;BME280;9016;53.582;10.062;2022-11-14T11:13:05;101646.13;;;10.62;78.00
17785;BME280;9016;53.582;10.062;2022-11-14T11:15:40;101646.81;;;10.47;77.56
17785;BME280;9016;53.582;10.062;2022-11-14T11:18:24;101633.56;;;10.46;77.65
17785;BME280;9016;53.582;10.062;2022-11-14T11:21:04;101616.00;;;10.60;78.08
17785;BME280;9016;53.582;10.062;2022-11-14T11:23:33;101627.22;;;10.67;77.97
17785;BME280;9016;53.582;10.062;2022-11-14T11:26:03;101606.59;;;10.52;77.72
17785;BME280;9016;53.582;10.062;2022-11-14T11:28:34;101616.97;;;10.39;78.54
17785;BME280;9016;53.582;10.062;2022-11-14T11:31:05;101612.34;;;10.43;78.07
17785;BME280;9016;53.582;10.062;2022-11-14T11:33:35;101611.28;;;10.47;78.48
17785;BME280;9016;53.582;10.062;2022-11-14T11:36:06;101595.22;;;10.67;77.59
17785;BME280;9016;53.582;10.062;2022-11-14T11:38:38;101590.19;;;10.79;76.41
17785;BME280;9016;53.582;10.062;2022-11-14T11:41:18;101585.28;;;10.70;77.41
17785;BME280;9016;53.582;10.062;2022-11-14T11:44:11;101586.72;;;10.59;77.44
17785;BME280;9016;53.582;10.062;2022-11-14T11:46:49;101562.81;;;10.57;77.73
17785;BME280;9016;53.582;10.062;2022-11-14T11:49:23;101560.22;;;10.56;77.65
17785;BME280;9016;53.582;10.062;2022-11-14T11:52:03;101559.06;;;10.61;77.58
17785;BME280;9016;53.582;10.062;2022-11-14T11:54:48;101546.25;;;10.69;77.51
17785;BME280;9016;53.582;10.062;2022-11-14T11:57:22;101550.56;;;10.53;77.70
17785;BME280;9016;53.582;10.062;2022-11-14T11:59:53;101553.38;;;10.50;78.15
17785;BME280;9016;53.582;10.062;2022-11-14T12:02:26;101535.81;;;10.46;78.09
17785;BME280;9016;53.582;10.062;2022-11-14T12:04:55;101534.03;;;10.47;78.23
17785;BME280;9016;53.582;10.062;2022-11-14T12:07:34;101553.09;;;10.56;78.20
17785;BME280;9016;53.582;10.062;2022-11-14T12:10:11;101559.06;;;10.61;78.12
17785;BME280;9016;53.582;10.062;2022-11-14T12:13:07;101582.91;;;10.64;77.66
17785;BME280;9016;53.582;10.062;2022-11-14T12:15:43;101569.00;;;10.76;77.89
17785;BME280;9016;53.582;10.062;2022-11-14T12:18:25;101571.75;;;10.75;77.22
17785;BME280;9016;53.582;10.062;2022-11-14T12:21:12;101591.06;;;10.80;77.42
17785;BME280;9016;53.582;10.062;2022-11-14T12:24:08;101593.56;;;10.83;76.45
17785;BME280;9016;53.582;10.062;2022-11-14T12:26:54;101586.59;;;10.80;76.88
17785;BME280;9016;53.582;10.062;2022-11-14T12:29:44;101599.06;;;10.80;77.16
17785;BME280;9016;53.582;10.062;2022-11-14T12:32:17;101602.28;;;10.86;76.63
17785;BME280;9016;53.582;10.062;2022-11-14T12:34:48;101594.69;;;10.79;77.17
17785;BME280;9016;53.582;10.062;2022-11-14T12:37:20;101584.66;;;10.84;77.40
17785;BME280;9016;53.582;10.062;2022-11-14T12:39:58;101587.88;;;10.90;77.36
17785;BME280;9016;53.582;10.062;2022-11-14T12:42:27;101593.13;;;10.92;76.91
17785;BME280;9016;53.582;10.062;2022-11-14T12:44:55;101571.59;;;10.78;76.86
17785;BME280;9016;53.582;10.062;2022-11-14T12:47:25;101574.19;;;10.79;78.11
17785;BME280;9016;53.582;10.062;2022-11-14T12:50:30;101566.84;;;10.84;77.11
17785;BME280;9016;53.582;10.062;2022-11-14T12:53:02;101561.72;;;10.80;78.05
17785;BME280;9016;53.582;10.062;2022-11-14T12:55:52;101562.16;;;10.89;77.55
17785;BME280;9016;53.582;10.062;2022-11-14T13:01:26;101555.75;;;10.93;77.51
17785;BME280;9016;53.582;10.062;2022-11-14T13:04:22;101567.13;;;10.97;77.02
17785;BME280;9016;53.582;10.062;2022-11-14T13:07:21;101547.25;;;10.85;77.94
17785;BME280;9016;53.582;10.062;2022-11-14T13:10:15;101550.66;;;11.06;79.01
17785;BME280;9016;53.582;10.062;2022-11-14T13:13:00;101551.38;;;11.10;77.89
17785;BME280;9016;53.582;10.062;2022-11-14T13:15:52;101548.41;;;11.16;77.34
17785;BME280;9016;53.582;10.062;2022-11-14T13:18:50;101551.53;;;11.24;77.09
17785;BME280;9016;53.582;10.062;2022-11-14T13:21:36;101549.75;;;11.24;76.77
17785;BME280;9016;53.582;10.062;2022-11-14T13:24:16;101547.00;;;11.26;76.32
17785;BME280;9016;53.582;10.062;2022-11-14T13:26:46;101548.34;;;11.17;76.54